sensor_id;sensor_type;location;lat;lon;timestamp;temperature;humidity
46123;DHT22;31856;-35.404;149.120;2023-04-24T00:01:18;16.30;62.60
46123;DHT22;31856;-35.404;149.120;2023-04-24T00:03:48;16.30;62.40
46123;DHT22;31856;-35.404;149.120;2023-04-24T00:06:17;16.50;62.80
46123;DHT22;31856;-35.404;149.120;2023-04-24T00:08:47;16.60;62.90
46123;DHT22;31856;-35.404;149.120;2023-04-24T00:11:17;16.70;61.80
46123;DHT22;31856;-35.404;149.120;2023-04-24T00:13:47;16.80;61.40
46123;DHT22;31856;-35.404;149.120;2023-04-24T00:16:18;16.80;61.00
46123;DHT22;31856;-35.404;149.120;2023-04-24T00:18:49;17.00;61.30
46123;DHT22;31856;-35.404;149.120;2023-04-24T00:21:18;17.20;61.20
46123;DHT22;31856;-35.404;149.120;2023-04-24T00:23:49;17.30;60.50
46123;DHT22;31856;-35.404;149.120;2023-04-24T00:26:19;17.30;60.30
46123;DHT22;31856;-35.404;149.120;2023-04-24T00:28:49;17.50;60.00
46123;DHT22;31856;-35.404;149.120;2023-04-24T00:31:19;17.50;59.70
46123;DHT22;31856;-35.404;149.120;2023-04-24T00:33:48;17.60;59.50
46123;DHT22;31856;-35.404;149.120;2023-04-24T00:36:18;17.70;59.40
46123;DHT22;31856;-35.404;149.120;2023-04-24T00:38:49;17.80;58.90
46123;DHT22;31856;-35.404;149.120;2023-04-24T00:41:19;17.80;58.50
46123;DHT22;31856;-35.404;149.120;2023-04-24T00:43:50;17.90;58.70
46123;DHT22;31856;-35.404;149.120;2023-04-24T00:46:21;17.90;57.50
46123;DHT22;31856;-35.404;149.120;2023-04-24T00:48:51;18.00;57.70
46123;DHT22;31856;-35.404;149.120;2023-04-24T00:51:20;18.10;57.80
46123;DHT22;31856;-35.404;149.120;2023-04-24T00:53:50;18.10;57.70
46123;DHT22;31856;-35.404;149.120;2023-04-24T00:56:21;18.20;57.40
46123;DHT22;31856;-35.404;149.120;2023-04-24T00:58:50;18.30;57.00
46123;DHT22;31856;-35.404;149.120;2023-04-24T01:01:21;18.40;56.90
46123;DHT22;31856;-35.404;149.120;2023-04-24T01:03:51;18.50;56.60
46123;DHT22;31856;-35.404;149.120;2023-04-24T01:06:21;18.60;56.70
46123;DHT22;31856;-35.404;149.120;2023-04-24T01:08:51;18.70;56.80
46123;DHT22;31856;-35.404;149.120;2023-04-24T01:11:21;18.80;56.10
46123;DHT22;31856;-35.404;149.120;2023-04-24T01:13:51;18.80;55.50
46123;DHT22;31856;-35.404;149.120;2023-04-24T01:16:20;18.80;55.70
46123;DHT22;31856;-35.404;149.120;2023-04-24T01:18:50;18.80;56.10
46123;DHT22;31856;-35.404;149.120;2023-04-24T01:21:19;18.90;56.10
46123;DHT22;31856;-35.404;149.120;2023-04-24T01:23:50;19.00;56.00
46123;DHT22;31856;-35.404;149.120;2023-04-24T01:26:20;19.00;55.20
46123;DHT22;31856;-35.404;149.120;2023-04-24T01:28:50;19.00;55.40
46123;DHT22;31856;-35.404;149.120;2023-04-24T01:31:21;19.10;55.60
46123;DHT22;31856;-35.404;149.120;2023-04-24T01:33:51;19.20;55.40
46123;DHT22;31856;-35.404;149.120;2023-04-24T01:36:21;19.30;55.10
46123;DHT22;31856;-35.404;149.120;2023-04-24T01:38:53;19.30;54.30
46123;DHT22;31856;-35.404;149.120;2023-04-24T01:41:23;19.30;54.40
46123;DHT22;31856;-35.404;149.120;2023-04-24T01:43:52;19.30;54.50
46123;DHT22;31856;-35.404;149.120;2023-04-24T01:46:22;19.30;53.60
46123;DHT22;31856;-35.404;149.120;2023-04-24T01:48:53;19.30;54.00
46123;DHT22;31856;-35.404;149.120;2023-04-24T01:51:24;19.50;54.40
46123;DHT22;31856;-35.404;149.120;2023-04-24T01:53:54;19.60;54.00
46123;DHT22;31856;-35.404;149.120;2023-04-24T01:56:24;19.60;53.50
46123;DHT22;31856;-35.404;149.120;2023-04-24T01:58:55;19.70;52.80
46123;DHT22;31856;-35.404;149.120;2023-04-24T02:01:25;19.70;52.60
46123;DHT22;31856;-35.404;149.120;2023-04-24T02:03:55;19.90;52.40
46123;DHT22;31856;-35.404;149.120;2023-04-24T02:06:25;19.80;51.20
46123;DHT22;31856;-35.404;149.120;2023-04-24T02:08:55;19.90;50.50
46123;DHT22;31856;-35.404;149.120;2023-04-24T02:11:24;19.90;50.90
46123;DHT22;31856;-35.404;149.120;2023-04-24T02:13:55;19.90;51.10
46123;DHT22;31856;-35.404;149.120;2023-04-24T02:16:24;20.00;50.90
46123;DHT22;31856;-35.404;149.120;2023-04-24T02:18:54;20.10;51.50
46123;DHT22;31856;-35.404;149.120;2023-04-24T02:21:23;20.10;51.10
46123;DHT22;31856;-35.404;149.120;2023-04-24T02:23:54;20.20;50.30
46123;DHT22;31856;-35.404;149.120;2023-04-24T02:26:23;20.20;50.00
46123;DHT22;31856;-35.404;149.120;2023-04-24T02:28:53;20.20;49.90
46123;DHT22;31856;-35.404;149.120;2023-04-24T02:31:23;20.30;50.10
46123;DHT22;31856;-35.404;149.120;2023-04-24T02:33:52;20.50;50.40
46123;DHT22;31856;-35.404;149.120;2023-04-24T02:36:22;20.50;49.30
46123;DHT22;31856;-35.404;149.120;2023-04-24T02:38:51;20.50;49.00
46123;DHT22;31856;-35.404;149.120;2023-04-24T02:41:20;20.60;49.00
46123;DHT22;31856;-35.404;149.120;2023-04-24T02:43:50;20.70;48.30
46123;DHT22;31856;-35.404;149.120;2023-04-24T02:46:19;20.80;48.10
46123;DHT22;31856;-35.404;149.120;2023-04-24T02:48:49;20.80;47.90
46123;DHT22;31856;-35.404;149.120;2023-04-24T02:51:18;20.80;47.70
46123;DHT22;31856;-35.404;149.120;2023-04-24T02:53:48;20.90;47.20
46123;DHT22;31856;-35.404;149.120;2023-04-24T02:56:17;20.80;46.80
46123;DHT22;31856;-35.404;149.120;2023-04-24T02:58:47;20.90;47.60
46123;DHT22;31856;-35.404;149.120;2023-04-24T03:01:16;20.90;45.90
46123;DHT22;31856;-35.404;149.120;2023-04-24T03:03:46;20.80;45.80
46123;DHT22;31856;-35.404;149.120;2023-04-24T03:06:16;20.80;45.30
46123;DHT22;31856;-35.404;149.120;2023-04-24T03:08:45;20.80;46.00
46123;DHT22;31856;-35.404;149.120;2023-04-24T03:11:14;20.90;45.60
46123;DHT22;31856;-35.404;149.120;2023-04-24T03:13:44;21.00;45.20
46123;DHT22;31856;-35.404;149.120;2023-04-24T03:16:14;20.90;44.50
46123;DHT22;31856;-35.404;149.120;2023-04-24T03:18:44;21.00;44.10
46123;DHT22;31856;-35.404;149.120;2023-04-24T03:21:13;21.00;44.00
46123;DHT22;31856;-35.404;149.120;2023-04-24T03:23:42;21.10;44.00
46123;DHT22;31856;-35.404;149.120;2023-04-24T03:26:12;21.20;44.00
46123;DHT22;31856;-35.404;149.120;2023-04-24T03:28:41;21.20;42.90
46123;DHT22;31856;-35.404;149.120;2023-04-24T03:31:10;21.30;42.00
46123;DHT22;31856;-35.404;149.120;2023-04-24T03:33:40;21.30;41.90
46123;DHT22;31856;-35.404;149.120;2023-04-24T03:36:10;21.30;41.00
46123;DHT22;31856;-35.404;149.120;2023-04-24T03:38:40;21.30;40.90
46123;DHT22;31856;-35.404;149.120;2023-04-24T03:41:09;21.40;40.90
46123;DHT22;31856;-35.404;149.120;2023-04-24T03:43:39;21.40;42.00
46123;DHT22;31856;-35.404;149.120;2023-04-24T03:46:08;21.50;41.20
46123;DHT22;31856;-35.404;149.120;2023-04-24T03:48:37;21.50;40.90
46123;DHT22;31856;-35.404;149.120;2023-04-24T03:51:07;21.50;41.00
46123;DHT22;31856;-35.404;149.120;2023-04-24T03:53:37;21.40;41.10
46123;DHT22;31856;-35.404;149.120;2023-04-24T03:56:07;21.40;40.60
46123;DHT22;31856;-35.404;149.120;2023-04-24T03:58:36;21.30;39.90
46123;DHT22;31856;-35.404;149.120;2023-04-24T04:01:06;21.30;39.50
46123;DHT22;31856;-35.404;149.120;2023-04-24T04:03:36;21.30;40.20
46123;DHT22;31856;-35.404;149.120;2023-04-24T04:06:06;21.30;41.50
46123;DHT22;31856;-35.404;149.120;2023-04-24T04:08:36;21.30;41.70
46123;DHT22;31856;-35.404;149.120;2023-04-24T04:11:06;21.40;41.30
46123;DHT22;31856;-35.404;149.120;2023-04-24T04:13:35;21.40;41.60
46123;DHT22;31856;-35.404;149.120;2023-04-24T04:16:05;21.50;42.60
46123;DHT22;31856;-35.404;149.120;2023-04-24T04:18:35;21.50;42.00
46123;DHT22;31856;-35.404;149.120;2023-04-24T04:21:05;21.50;41.80
46123;DHT22;31856;-35.404;149.120;2023-04-24T04:23:35;21.50;41.90
46123;DHT22;31856;-35.404;149.120;2023-04-24T04:26:05;21.60;42.40
46123;DHT22;31856;-35.404;149.120;2023-04-24T04:28:35;21.50;42.60
46123;DHT22;31856;-35.404;149.120;2023-04-24T04:31:06;21.50;42.30
46123;DHT22;31856;-35.404;149.120;2023-04-24T04:33:36;21.40;41.50
46123;DHT22;31856;-35.404;149.120;2023-04-24T04:36:07;21.40;42.80
46123;DHT22;31856;-35.404;149.120;2023-04-24T04:38:37;21.40;43.40
46123;DHT22;31856;-35.404;149.120;2023-04-24T04:41:09;21.30;43.40
46123;DHT22;31856;-35.404;149.120;2023-04-24T04:43:39;21.40;43.70
46123;DHT22;31856;-35.404;149.120;2023-04-24T04:46:09;21.40;43.10
46123;DHT22;31856;-35.404;149.120;2023-04-24T04:48:40;21.40;43.00
46123;DHT22;31856;-35.404;149.120;2023-04-24T04:51:10;21.50;43.00
46123;DHT22;31856;-35.404;149.120;2023-04-24T04:53:40;21.50;42.50
46123;DHT22;31856;-35.404;149.120;2023-04-24T04:56:10;21.40;42.10
46123;DHT22;31856;-35.404;149.120;2023-04-24T04:58:39;21.30;42.30
46123;DHT22;31856;-35.404;149.120;2023-04-24T05:01:09;21.40;42.50
46123;DHT22;31856;-35.404;149.120;2023-04-24T05:03:38;21.40;42.50
46123;DHT22;31856;-35.404;149.120;2023-04-24T05:06:09;21.40;42.70
46123;DHT22;31856;-35.404;149.120;2023-04-24T05:08:38;21.40;43.30
46123;DHT22;31856;-35.404;149.120;2023-04-24T05:11:08;21.40;42.70
46123;DHT22;31856;-35.404;149.120;2023-04-24T05:13:38;21.40;43.60
46123;DHT22;31856;-35.404;149.120;2023-04-24T05:16:07;21.40;44.60
46123;DHT22;31856;-35.404;149.120;2023-04-24T05:18:36;21.50;44.50
46123;DHT22;31856;-35.404;149.120;2023-04-24T05:21:06;21.50;45.10
46123;DHT22;31856;-35.404;149.120;2023-04-24T05:23:35;21.50;44.80
46123;DHT22;31856;-35.404;149.120;2023-04-24T05:26:05;21.50;44.40
46123;DHT22;31856;-35.404;149.120;2023-04-24T05:28:34;21.50;44.50
46123;DHT22;31856;-35.404;149.120;2023-04-24T05:31:05;21.40;44.00
46123;DHT22;31856;-35.404;149.120;2023-04-24T05:33:35;21.40;43.90
46123;DHT22;31856;-35.404;149.120;2023-04-24T05:36:04;21.40;43.90
46123;DHT22;31856;-35.404;149.120;2023-04-24T05:38:35;21.40;43.80
46123;DHT22;31856;-35.404;149.120;2023-04-24T05:41:04;21.40;44.10
46123;DHT22;31856;-35.404;149.120;2023-04-24T05:43:33;21.40;44.90
46123;DHT22;31856;-35.404;149.120;2023-04-24T05:46:03;21.30;45.30
46123;DHT22;31856;-35.404;149.120;2023-04-24T05:48:33;21.30;45.40
46123;DHT22;31856;-35.404;149.120;2023-04-24T05:51:03;21.30;45.70
46123;DHT22;31856;-35.404;149.120;2023-04-24T05:53:33;21.30;46.20
46123;DHT22;31856;-35.404;149.120;2023-04-24T05:56:03;21.30;46.60
46123;DHT22;31856;-35.404;149.120;2023-04-24T05:58:33;21.20;47.30
46123;DHT22;31856;-35.404;149.120;2023-04-24T06:01:02;21.20;47.50
46123;DHT22;31856;-35.404;149.120;2023-04-24T06:03:32;21.10;46.90
46123;DHT22;31856;-35.404;149.120;2023-04-24T06:06:02;21.00;46.80
46123;DHT22;31856;-35.404;149.120;2023-04-24T06:08:32;21.00;47.00
46123;DHT22;31856;-35.404;149.120;2023-04-24T06:11:01;20.90;47.10
46123;DHT22;31856;-35.404;149.120;2023-04-24T06:13:31;20.80;47.40
46123;DHT22;31856;-35.404;149.120;2023-04-24T06:16:01;20.80;48.10
46123;DHT22;31856;-35.404;149.120;2023-04-24T06:18:30;20.70;48.00
46123;DHT22;31856;-35.404;149.120;2023-04-24T06:21:00;20.60;48.10
46123;DHT22;31856;-35.404;149.120;2023-04-24T06:23:29;20.50;48.50
46123;DHT22;31856;-35.404;149.120;2023-04-24T06:26:02;20.40;48.70
46123;DHT22;31856;-35.404;149.120;2023-04-24T06:28:32;20.30;49.00
46123;DHT22;31856;-35.404;149.120;2023-04-24T06:31:01;20.30;49.10
46123;DHT22;31856;-35.404;149.120;2023-04-24T06:33:30;20.20;49.60
46123;DHT22;31856;-35.404;149.120;2023-04-24T06:36:00;20.00;49.70
46123;DHT22;31856;-35.404;149.120;2023-04-24T06:38:30;20.00;50.10
46123;DHT22;31856;-35.404;149.120;2023-04-24T06:41:00;19.90;50.00
46123;DHT22;31856;-35.404;149.120;2023-04-24T06:43:29;19.80;50.30
46123;DHT22;31856;-35.404;149.120;2023-04-24T06:45:59;19.70;50.70
46123;DHT22;31856;-35.404;149.120;2023-04-24T06:48:29;19.70;50.90
46123;DHT22;31856;-35.404;149.120;2023-04-24T06:50:59;19.50;51.40
46123;DHT22;31856;-35.404;149.120;2023-04-24T06:53:29;19.50;51.60
46123;DHT22;31856;-35.404;149.120;2023-04-24T06:55:58;19.30;51.90
46123;DHT22;31856;-35.404;149.120;2023-04-24T06:58:29;19.30;52.20
46123;DHT22;31856;-35.404;149.120;2023-04-24T07:00:59;19.20;52.40
46123;DHT22;31856;-35.404;149.120;2023-04-24T07:03:28;19.10;52.50
46123;DHT22;31856;-35.404;149.120;2023-04-24T07:05:58;19.00;53.00
46123;DHT22;31856;-35.404;149.120;2023-04-24T07:08:29;18.90;53.20
46123;DHT22;31856;-35.404;149.120;2023-04-24T07:11:02;18.80;53.40
46123;DHT22;31856;-35.404;149.120;2023-04-24T07:13:32;18.80;53.60
46123;DHT22;31856;-35.404;149.120;2023-04-24T07:16:03;18.70;53.80
46123;DHT22;31856;-35.404;149.120;2023-04-24T07:18:33;18.50;54.30
46123;DHT22;31856;-35.404;149.120;2023-04-24T07:21:02;18.50;54.50
46123;DHT22;31856;-35.404;149.120;2023-04-24T07:23:32;18.40;54.70
46123;DHT22;31856;-35.404;149.120;2023-04-24T07:26:02;18.30;55.10
46123;DHT22;31856;-35.404;149.120;2023-04-24T07:28:31;18.20;55.20
46123;DHT22;31856;-35.404;149.120;2023-04-24T07:31:00;18.20;55.60
46123;DHT22;31856;-35.404;149.120;2023-04-24T07:33:30;18.10;55.80
46123;DHT22;31856;-35.404;149.120;2023-04-24T07:36:00;18.00;56.10
46123;DHT22;31856;-35.404;149.120;2023-04-24T07:38:30;17.90;56.40
46123;DHT22;31856;-35.404;149.120;2023-04-24T07:40:59;17.90;56.70
46123;DHT22;31856;-35.404;149.120;2023-04-24T07:43:29;17.80;56.90
46123;DHT22;31856;-35.404;149.120;2023-04-24T07:45:59;17.70;57.50
46123;DHT22;31856;-35.404;149.120;2023-04-24T07:48:29;17.60;57.60
46123;DHT22;31856;-35.404;149.120;2023-04-24T07:50:58;17.60;58.00
46123;DHT22;31856;-35.404;149.120;2023-04-24T07:53:29;17.40;58.20
46123;DHT22;31856;-35.404;149.120;2023-04-24T07:55:59;17.40;58.50
46123;DHT22;31856;-35.404;149.120;2023-04-24T07:58:29;17.30;58.90
46123;DHT22;31856;-35.404;149.120;2023-04-24T08:00:58;17.30;59.20
46123;DHT22;31856;-35.404;149.120;2023-04-24T08:03:29;17.10;59.70
46123;DHT22;31856;-35.404;149.120;2023-04-24T08:05:59;17.10;59.90
46123;DHT22;31856;-35.404;149.120;2023-04-24T08:08:29;17.00;60.30
46123;DHT22;31856;-35.404;149.120;2023-04-24T08:10:59;16.90;60.30
46123;DHT22;31856;-35.404;149.120;2023-04-24T08:13:29;16.80;60.50
46123;DHT22;31856;-35.404;149.120;2023-04-24T08:16:00;16.80;60.30
46123;DHT22;31856;-35.404;149.120;2023-04-24T08:18:30;16.70;60.30
46123;DHT22;31856;-35.404;149.120;2023-04-24T08:21:01;16.60;60.50
46123;DHT22;31856;-35.404;149.120;2023-04-24T08:23:31;16.60;60.40
46123;DHT22;31856;-35.404;149.120;2023-04-24T08:26:00;16.60;60.50
46123;DHT22;31856;-35.404;149.120;2023-04-24T08:28:30;16.50;60.30
46123;DHT22;31856;-35.404;149.120;2023-04-24T08:30:59;16.50;60.30
46123;DHT22;31856;-35.404;149.120;2023-04-24T08:33:28;16.50;60.30
46123;DHT22;31856;-35.404;149.120;2023-04-24T08:36:03;16.40;60.30
46123;DHT22;31856;-35.404;149.120;2023-04-24T08:38:33;16.40;60.60
46123;DHT22;31856;-35.404;149.120;2023-04-24T08:41:02;16.30;60.90
46123;DHT22;31856;-35.404;149.120;2023-04-24T08:43:33;16.30;61.00
46123;DHT22;31856;-35.404;149.120;2023-04-24T08:46:05;16.20;61.30
46123;DHT22;31856;-35.404;149.120;2023-04-24T08:48:38;16.20;61.30
46123;DHT22;31856;-35.404;149.120;2023-04-24T08:51:08;16.00;61.90
46123;DHT22;31856;-35.404;149.120;2023-04-24T08:53:39;16.00;61.90
46123;DHT22;31856;-35.404;149.120;2023-04-24T08:56:09;15.90;62.40
46123;DHT22;31856;-35.404;149.120;2023-04-24T08:58:38;15.80;62.60
46123;DHT22;31856;-35.404;149.120;2023-04-24T09:01:08;15.80;62.70
46123;DHT22;31856;-35.404;149.120;2023-04-24T09:03:38;15.70;62.80
46123;DHT22;31856;-35.404;149.120;2023-04-24T09:06:08;15.70;63.00
46123;DHT22;31856;-35.404;149.120;2023-04-24T09:08:38;15.70;63.00
46123;DHT22;31856;-35.404;149.120;2023-04-24T09:11:08;15.60;63.30
46123;DHT22;31856;-35.404;149.120;2023-04-24T09:13:39;15.50;63.50
46123;DHT22;31856;-35.404;149.120;2023-04-24T09:16:09;15.50;64.00
46123;DHT22;31856;-35.404;149.120;2023-04-24T09:18:39;15.40;64.20
46123;DHT22;31856;-35.404;149.120;2023-04-24T09:21:09;15.40;64.30
46123;DHT22;31856;-35.404;149.120;2023-04-24T09:23:39;15.40;64.30
46123;DHT22;31856;-35.404;149.120;2023-04-24T09:26:08;15.30;64.70
46123;DHT22;31856;-35.404;149.120;2023-04-24T09:28:39;15.30;64.60
46123;DHT22;31856;-35.404;149.120;2023-04-24T09:31:12;15.30;64.90
46123;DHT22;31856;-35.404;149.120;2023-04-24T09:34:01;15.20;65.30
46123;DHT22;31856;-35.404;149.120;2023-04-24T09:36:39;15.10;65.50
46123;DHT22;31856;-35.404;149.120;2023-04-24T09:39:10;15.10;66.10
46123;DHT22;31856;-35.404;149.120;2023-04-24T09:41:47;15.10;65.80
46123;DHT22;31856;-35.404;149.120;2023-04-24T09:44:24;15.10;65.90
46123;DHT22;31856;-35.404;149.120;2023-04-24T09:46:56;15.00;65.80
46123;DHT22;31856;-35.404;149.120;2023-04-24T09:49:30;15.10;66.00
46123;DHT22;31856;-35.404;149.120;2023-04-24T09:52:08;15.10;65.80
46123;DHT22;31856;-35.404;149.120;2023-04-24T09:54:39;15.10;66.20
46123;DHT22;31856;-35.404;149.120;2023-04-24T09:57:10;15.00;66.10
46123;DHT22;31856;-35.404;149.120;2023-04-24T09:59:42;15.10;65.90
46123;DHT22;31856;-35.404;149.120;2023-04-24T10:02:18;15.00;66.20
46123;DHT22;31856;-35.404;149.120;2023-04-24T10:04:55;15.00;66.20
46123;DHT22;31856;-35.404;149.120;2023-04-24T10:07:29;15.00;66.30
46123;DHT22;31856;-35.404;149.120;2023-04-24T10:10:01;14.90;66.40
46123;DHT22;31856;-35.404;149.120;2023-04-24T10:12:31;14.90;66.40
46123;DHT22;31856;-35.404;149.120;2023-04-24T10:15:01;14.90;66.40
46123;DHT22;31856;-35.404;149.120;2023-04-24T10:17:31;14.80;66.50
46123;DHT22;31856;-35.404;149.120;2023-04-24T10:20:01;14.80;66.60
46123;DHT22;31856;-35.404;149.120;2023-04-24T10:22:32;14.70;66.90
46123;DHT22;31856;-35.404;149.120;2023-04-24T10:25:04;14.70;66.90
46123;DHT22;31856;-35.404;149.120;2023-04-24T10:27:35;14.70;67.00
46123;DHT22;31856;-35.404;149.120;2023-04-24T10:30:05;14.70;67.20
46123;DHT22;31856;-35.404;149.120;2023-04-24T10:32:35;14.60;67.40
46123;DHT22;31856;-35.404;149.120;2023-04-24T10:35:06;14.60;67.40
46123;DHT22;31856;-35.404;149.120;2023-04-24T10:37:37;14.60;67.40
46123;DHT22;31856;-35.404;149.120;2023-04-24T10:40:09;14.60;67.50
46123;DHT22;31856;-35.404;149.120;2023-04-24T10:42:41;14.50;67.60
46123;DHT22;31856;-35.404;149.120;2023-04-24T10:45:17;14.50;67.70
46123;DHT22;31856;-35.404;149.120;2023-04-24T10:48:06;14.60;67.70
46123;DHT22;31856;-35.404;149.120;2023-04-24T10:50:46;14.60;67.90
46123;DHT22;31856;-35.404;149.120;2023-04-24T10:53:17;14.60;68.00
46123;DHT22;31856;-35.404;149.120;2023-04-24T10:55:47;14.50;68.30
46123;DHT22;31856;-35.404;149.120;2023-04-24T10:58:24;14.50;68.20
46123;DHT22;31856;-35.404;149.120;2023-04-24T11:00:58;14.50;68.40
46123;DHT22;31856;-35.404;149.120;2023-04-24T11:03:32;14.50;68.40
46123;DHT22;31856;-35.404;149.120;2023-04-24T11:06:03;14.50;68.40
46123;DHT22;31856;-35.404;149.120;2023-04-24T11:11:08;14.50;68.90
46123;DHT22;31856;-35.404;149.120;2023-04-24T11:16:28;14.40;69.40
46123;DHT22;31856;-35.404;149.120;2023-04-24T11:19:04;14.40;69.20
46123;DHT22;31856;-35.404;149.120;2023-04-24T11:21:38;14.40;69.50
46123;DHT22;31856;-35.404;149.120;2023-04-24T11:29:44;14.30;70.40
46123;DHT22;31856;-35.404;149.120;2023-04-24T11:32:15;14.30;70.50
46123;DHT22;31856;-35.404;149.120;2023-04-24T11:34:50;14.30;70.80
46123;DHT22;31856;-35.404;149.120;2023-04-24T11:37:21;14.30;71.10
46123;DHT22;31856;-35.404;149.120;2023-04-24T11:39:51;14.30;71.00
46123;DHT22;31856;-35.404;149.120;2023-04-24T11:42:23;14.30;71.20
46123;DHT22;31856;-35.404;149.120;2023-04-24T11:44:54;14.30;71.40
46123;DHT22;31856;-35.404;149.120;2023-04-24T11:47:30;14.30;71.70
46123;DHT22;31856;-35.404;149.120;2023-04-24T11:50:02;14.20;72.10
46123;DHT22;31856;-35.404;149.120;2023-04-24T11:52:32;14.20;72.40
46123;DHT22;31856;-35.404;149.120;2023-04-24T11:55:03;14.20;72.70
46123;DHT22;31856;-35.404;149.120;2023-04-24T11:57:32;14.20;72.90
46123;DHT22;31856;-35.404;149.120;2023-04-24T12:00:05;14.20;72.80
46123;DHT22;31856;-35.404;149.120;2023-04-24T12:02:35;14.20;72.90
46123;DHT22;31856;-35.404;149.120;2023-04-24T12:05:06;14.20;73.20
46123;DHT22;31856;-35.404;149.120;2023-04-24T12:07:42;14.20;73.10
46123;DHT22;31856;-35.404;149.120;2023-04-24T12:10:11;14.20;73.10
46123;DHT22;31856;-35.404;149.120;2023-04-24T12:12:41;14.10;73.80
46123;DHT22;31856;-35.404;149.120;2023-04-24T12:15:11;14.00;73.10
46123;DHT22;31856;-35.404;149.120;2023-04-24T12:17:41;14.00;72.60
46123;DHT22;31856;-35.404;149.120;2023-04-24T12:20:11;14.00;72.40
46123;DHT22;31856;-35.404;149.120;2023-04-24T12:25:17;13.80;72.40
46123;DHT22;31856;-35.404;149.120;2023-04-24T12:27:52;13.80;72.10
46123;DHT22;31856;-35.404;149.120;2023-04-24T12:30:26;13.70;72.30
46123;DHT22;31856;-35.404;149.120;2023-04-24T12:33:00;13.70;72.00
46123;DHT22;31856;-35.404;149.120;2023-04-24T12:35:30;13.60;72.30
46123;DHT22;31856;-35.404;149.120;2023-04-24T12:38:07;13.50;72.90
46123;DHT22;31856;-35.404;149.120;2023-04-24T12:40:37;13.40;73.20
46123;DHT22;31856;-35.404;149.120;2023-04-24T12:43:13;13.40;73.10
46123;DHT22;31856;-35.404;149.120;2023-04-24T12:45:44;13.30;73.80
46123;DHT22;31856;-35.404;149.120;2023-04-24T12:48:16;13.20;73.80
46123;DHT22;31856;-35.404;149.120;2023-04-24T12:50:45;13.20;74.10
46123;DHT22;31856;-35.404;149.120;2023-04-24T12:53:16;13.10;74.40
46123;DHT22;31856;-35.404;149.120;2023-04-24T12:55:45;13.00;74.40
46123;DHT22;31856;-35.404;149.120;2023-04-24T12:58:21;13.00;74.30
46123;DHT22;31856;-35.404;149.120;2023-04-24T13:00:51;13.00;74.20
46123;DHT22;31856;-35.404;149.120;2023-04-24T13:03:21;12.90;74.20
46123;DHT22;31856;-35.404;149.120;2023-04-24T13:05:51;12.80;74.10
46123;DHT22;31856;-35.404;149.120;2023-04-24T13:08:21;12.80;74.10
46123;DHT22;31856;-35.404;149.120;2023-04-24T13:10:51;12.80;74.00
46123;DHT22;31856;-35.404;149.120;2023-04-24T13:13:22;12.80;74.20
46123;DHT22;31856;-35.404;149.120;2023-04-24T13:15:51;12.80;74.00
46123;DHT22;31856;-35.404;149.120;2023-04-24T13:18:21;12.80;74.10
46123;DHT22;31856;-35.404;149.120;2023-04-24T13:20:51;12.70;74.50
46123;DHT22;31856;-35.404;149.120;2023-04-24T13:23:22;12.60;74.50
46123;DHT22;31856;-35.404;149.120;2023-04-24T13:25:53;12.50;74.70
46123;DHT22;31856;-35.404;149.120;2023-04-24T13:28:25;12.50;74.50
46123;DHT22;31856;-35.404;149.120;2023-04-24T13:30:55;12.40;74.90
46123;DHT22;31856;-35.404;149.120;2023-04-24T13:33:24;12.30;75.40
46123;DHT22;31856;-35.404;149.120;2023-04-24T13:35:54;12.40;75.30
46123;DHT22;31856;-35.404;149.120;2023-04-24T13:38:23;12.30;75.60
46123;DHT22;31856;-35.404;149.120;2023-04-24T13:40:53;12.30;76.00
46123;DHT22;31856;-35.404;149.120;2023-04-24T13:43:24;12.20;75.40
46123;DHT22;31856;-35.404;149.120;2023-04-24T13:45:53;12.20;75.50
46123;DHT22;31856;-35.404;149.120;2023-04-24T13:48:22;12.20;76.00
46123;DHT22;31856;-35.404;149.120;2023-04-24T13:50:53;12.10;76.00
46123;DHT22;31856;-35.404;149.120;2023-04-24T13:53:22;12.00;75.90
46123;DHT22;31856;-35.404;149.120;2023-04-24T13:55:51;12.00;75.70
46123;DHT22;31856;-35.404;149.120;2023-04-24T13:58:22;11.80;75.90
46123;DHT22;31856;-35.404;149.120;2023-04-24T14:00:51;11.90;76.00
46123;DHT22;31856;-35.404;149.120;2023-04-24T14:03:21;11.90;76.40
46123;DHT22;31856;-35.404;149.120;2023-04-24T14:05:52;11.80;76.50
46123;DHT22;31856;-35.404;149.120;2023-04-24T14:08:21;11.80;76.10
46123;DHT22;31856;-35.404;149.120;2023-04-24T14:10:51;11.80;76.20
46123;DHT22;31856;-35.404;149.120;2023-04-24T14:13:21;11.70;76.70
46123;DHT22;31856;-35.404;149.120;2023-04-24T14:15:51;11.70;76.40
46123;DHT22;31856;-35.404;149.120;2023-04-24T14:18:21;11.70;76.20
46123;DHT22;31856;-35.404;149.120;2023-04-24T14:20:51;11.70;76.20
46123;DHT22;31856;-35.404;149.120;2023-04-24T14:23:20;11.70;75.90
46123;DHT22;31856;-35.404;149.120;2023-04-24T14:25:49;11.60;76.40
46123;DHT22;31856;-35.404;149.120;2023-04-24T14:28:21;11.60;76.80
46123;DHT22;31856;-35.404;149.120;2023-04-24T14:30:50;11.60;76.80
46123;DHT22;31856;-35.404;149.120;2023-04-24T14:33:20;11.60;76.80
46123;DHT22;31856;-35.404;149.120;2023-04-24T14:35:49;11.60;76.90
46123;DHT22;31856;-35.404;149.120;2023-04-24T14:38:20;11.60;77.20
46123;DHT22;31856;-35.404;149.120;2023-04-24T14:40:50;11.50;77.00
46123;DHT22;31856;-35.404;149.120;2023-04-24T14:43:33;11.50;77.00
46123;DHT22;31856;-35.404;149.120;2023-04-24T14:46:03;11.50;77.20
46123;DHT22;31856;-35.404;149.120;2023-04-24T14:48:34;11.40;77.20
46123;DHT22;31856;-35.404;149.120;2023-04-24T14:51:04;11.40;77.40
46123;DHT22;31856;-35.404;149.120;2023-04-24T14:53:34;11.40;78.00
46123;DHT22;31856;-35.404;149.120;2023-04-24T14:56:04;11.40;78.20
46123;DHT22;31856;-35.404;149.120;2023-04-24T14:58:34;11.40;78.60
46123;DHT22;31856;-35.404;149.120;2023-04-24T15:01:03;11.40;78.50
46123;DHT22;31856;-35.404;149.120;2023-04-24T15:03:33;11.30;78.20
46123;DHT22;31856;-35.404;149.120;2023-04-24T15:06:03;11.30;77.40
46123;DHT22;31856;-35.404;149.120;2023-04-24T15:08:32;11.30;77.00
46123;DHT22;31856;-35.404;149.120;2023-04-24T15:11:01;11.30;76.50
46123;DHT22;31856;-35.404;149.120;2023-04-24T15:13:31;11.20;76.50
46123;DHT22;31856;-35.404;149.120;2023-04-24T15:16:00;11.10;76.80
46123;DHT22;31856;-35.404;149.120;2023-04-24T15:18:31;11.10;76.70
46123;DHT22;31856;-35.404;149.120;2023-04-24T15:21:00;11.10;76.80